Time;durP1;ratioP1;P1;durP2;ratioP2;P2;SDS_P1;SDS_P2;PMS_P1;PMS_P2;Temp;Humidity;BMP_temperature;BMP_pressure;BME280_temperature;BME280_humidity;BME280_pressure;Samples;Min_cycle;Max_cycle;Signal;HPM_P1;HPM_P2
2022/02/25 00:01:20;;;;;;;2.47;0.90;;;4.60;76.90;;;4.52;64.37;100468.81;4997953;28;20207;-69
2022/02/25 00:03:50;;;;;;;3.80;1.60;;;4.50;76.60;;;4.44;64.85;100483.06;4998018;28;20662;-69
2022/02/25 00:06:21;;;;;;;1.25;0.90;;;4.40;78.20;;;4.45;64.56;100489.28;4998213;28;20195;-70
2022/02/25 00:08:49;;;;;;;1.70;1.13;;;4.40;79.70;;;4.41;64.57;100498.63;4998535;28;20658;-69
2022/02/25 00:11:18;;;;;;;1.95;1.20;;;4.40;80.30;;;4.55;63.91;100500.63;4997476;28;20242;-71
2022/02/25 00:13:46;;;;;;;1.35;0.90;;;4.40;79.10;;;4.59;64.39;100505.47;4996719;28;20179;-69
2022/02/25 00:16:14;;;;;;;1.67;0.90;;;4.50;79.40;;;4.61;64.14;100516.84;4996787;28;20194;-69
2022/02/25 00:18:45;;;;;;;4.35;1.30;;;4.50;79.20;;;4.60;63.98;100525.88;4978813;28;20206;-70
2022/02/25 00:21:16;;;;;;;4.22;1.77;;;4.50;77.70;;;4.60;64.65;100523.19;4978482;28;20245;-70
2022/02/25 00:23:47;;;;;;;1.90;1.23;;;4.50;80.10;;;4.59;64.42;100529.59;4978757;28;20191;-70
2022/02/25 00:26:15;;;;;;;1.88;1.23;;;4.50;79.20;;;4.59;64.33;100543.00;4996032;28;20217;-69
2022/02/25 00:28:43;;;;;;;1.75;1.10;;;4.50;80.20;;;4.63;64.36;100546.16;4996400;28;20183;-70
2022/02/25 00:31:12;;;;;;;1.75;1.15;;;4.60;79.70;;;4.66;64.61;100557.34;4978306;28;20219;-70
2022/02/25 00:33:40;;;;;;;1.42;1.10;;;4.60;81.00;;;4.70;64.45;100563.19;4996602;28;20219;-70
2022/02/25 00:36:08;;;;;;;2.47;1.50;;;4.60;80.30;;;4.71;64.33;100565.72;4996322;28;20242;-69
2022/02/25 00:38:38;;;;;;;2.58;1.60;;;4.60;81.40;;;4.81;64.17;100568.19;4996601;28;20190;-69
2022/02/25 00:41:07;;;;;;;1.80;1.15;;;4.70;81.70;;;4.79;64.28;100573.72;4996655;28;20284;-70
2022/02/25 00:43:35;;;;;;;1.95;1.60;;;4.70;80.70;;;4.78;64.29;100585.47;4996239;28;20239;-70
2022/02/25 00:46:04;;;;;;;1.63;1.30;;;4.70;79.10;;;4.74;64.37;100584.13;4995932;28;20563;-69
2022/02/25 00:48:32;;;;;;;3.92;2.35;;;4.70;91.60;;;4.83;64.21;100595.69;4996138;28;20203;-69
2022/02/25 00:51:01;;;;;;;3.03;1.75;;;4.70;78.60;;;4.71;64.29;100603.25;4978137;28;20591;-70
2022/02/25 00:53:30;;;;;;;2.60;1.45;;;4.70;76.70;;;4.77;63.52;100607.09;4978265;28;20195;-70
2022/02/25 00:55:59;;;;;;;8.68;1.75;;;4.70;75.80;;;4.76;63.53;100625.00;4995770;28;20171;-70
2022/02/25 00:58:28;;;;;;;2.10;1.65;;;4.70;74.70;;;4.77;63.50;100613.28;4995531;28;20182;-69
2022/02/25 01:00:56;;;;;;;2.92;1.35;;;4.70;74.20;;;4.78;63.21;100616.81;4995770;28;20206;-69
2022/02/25 01:03:25;;;;;;;2.50;1.70;;;4.70;71.40;;;4.70;63.28;100620.31;4995869;28;20187;-69
2022/02/25 01:05:54;;;;;;;2.95;0.93;;;4.70;71.30;;;4.70;62.77;100622.16;4995729;28;20233;-70
2022/02/25 01:08:22;;;;;;;2.75;1.23;;;4.60;75.90;;;4.69;62.71;100631.25;4995471;28;20225;-69
2022/02/25 01:10:51;;;;;;;5.70;1.23;;;4.60;67.70;;;4.65;62.60;100629.88;4977785;28;20214;-70
2022/02/25 01:13:20;;;;;;;1.58;1.10;;;4.60;65.30;;;4.64;63.08;100631.75;4995533;28;20300;-71
2022/02/25 01:15:49;;;;;;;6.40;1.40;;;4.60;65.70;;;4.61;62.69;100642.78;4995193;28;20179;-70
2022/02/25 01:18:23;;;;;;;4.15;2.13;;;4.50;64.90;;;4.58;62.85;100645.81;4995416;28;20177;-70
2022/02/25 01:20:52;;;;;;;3.75;1.45;;;4.50;64.70;;;4.62;62.97;100649.84;4994976;28;20203;-69
2022/02/25 01:23:20;;;;;;;3.45;1.48;;;4.50;65.20;;;4.60;62.95;100645.66;4995179;28;20194;-72
2022/02/25 01:25:49;;;;;;;4.43;1.40;;;4.50;64.10;;;4.52;62.85;100651.84;4995087;28;20179;-70
2022/02/25 01:28:17;;;;;;;4.07;1.60;;;4.50;62.70;;;4.55;63.07;100654.19;4995016;28;20229;-70
2022/02/25 01:30:47;;;;;;;4.03;1.67;;;4.50;63.30;;;4.53;62.70;100658.06;4994986;28;20623;-71
2022/02/25 01:33:15;;;;;;;4.15;1.30;;;4.50;63.70;;;4.50;63.12;100664.59;4995000;28;20187;-70
2022/02/25 01:35:44;;;;;;;3.92;1.45;;;4.50;64.00;;;4.55;62.97;100678.31;4994370;28;20241;-68
2022/02/25 01:38:12;;;;;;;2.78;1.30;;;4.50;64.10;;;4.47;63.57;100675.63;4994848;28;20262;-68
2022/02/25 01:40:43;;;;;;;2.22;1.20;;;4.40;79.70;;;4.55;63.41;100677.50;4994615;28;20217;-70
2022/02/25 01:43:11;;;;;;;4.72;1.65;;;4.50;65.40;;;4.56;63.55;100684.50;4994830;28;20179;-70
2022/02/25 01:45:40;;;;;;;2.55;1.00;;;4.50;66.70;;;4.55;63.17;100677.50;4994573;28;20187;-70
2022/02/25 01:48:10;;;;;;;5.93;1.67;;;4.50;65.60;;;4.50;63.44;100680.69;4994690;28;20222;-70
2022/02/25 01:50:38;;;;;;;9.15;2.50;;;4.50;65.50;;;4.52;63.73;100673.28;4994302;28;20218;-71
2022/02/25 01:53:09;;;;;;;4.10;1.45;;;4.50;67.50;;;4.55;63.82;100683.66;4995077;28;20559;-70
2022/02/25 01:55:40;;;;;;;2.88;1.65;;;4.50;68.10;;;4.58;64.08;100683.34;4994679;28;20183;-70
2022/02/25 01:58:09;;;;;;;1.85;1.23;;;4.50;69.40;;;4.59;63.91;100687.69;4994540;28;20654;-70
2022/02/25 02:00:38;;;;;;;4.65;1.40;;;4.50;70.30;;;4.60;63.96;100684.00;4994093;28;20257;-70
2022/02/25 02:03:08;;;;;;;2.28;1.40;;;4.50;70.20;;;4.61;63.75;100687.50;4994471;28;20621;-70
2022/02/25 02:05:38;;;;;;;5.38;1.80;;;4.50;69.70;;;4.55;64.01;100680.19;4994307;28;20194;-72
2022/02/25 02:08:07;;;;;;;5.13;1.50;;;4.50;70.30;;;4.57;63.95;100686.19;4994219;28;20218;-71
2022/02/25 02:10:35;;;;;;;6.07;2.05;;;4.50;71.10;;;4.63;64.03;100694.41;4994099;28;20214;-70
2022/02/25 02:13:04;;;;;;;1.65;1.33;;;4.50;71.90;;;4.60;64.38;100707.31;4994400;28;20205;-69
2022/02/25 02:15:32;;;;;;;3.75;1.50;;;4.50;72.60;;;4.56;64.10;100695.22;4994554;28;20579;-71
2022/02/25 02:18:01;;;;;;;5.95;1.55;;;4.50;72.40;;;4.60;64.45;100707.31;4994480;28;20174;-69
2022/02/25 02:20:31;;;;;;;4.90;1.92;;;4.50;73.30;;;4.59;64.28;100702.94;4994315;28;20207;-71
2022/02/25 02:23:01;;;;;;;4.88;2.20;;;4.50;74.20;;;4.54;64.88;100703.44;4994044;28;20179;-69
2022/02/25 02:25:29;;;;;;;6.45;1.73;;;4.40;75.40;;;4.56;64.63;100706.78;4976851;28;20206;-69
2022/02/25 02:30:45;;;;;;;3.75;1.85;;;4.50;76.60;;;4.38;64.64;100720.34;4993647;28;20213;-70
2022/02/25 02:33:14;;;;;;;5.53;2.05;;;4.40;75.10;;;4.37;64.94;100718.66;4993841;28;20179;-69
2022/02/25 02:35:43;;;;;;;3.30;1.80;;;4.30;76.70;;;4.41;64.36;100718.31;4993515;28;20179;-69
2022/02/25 02:38:12;;;;;;;3.75;1.95;;;4.40;75.90;;;4.33;64.87;100722.69;4993394;28;20652;-69
2022/02/25 02:40:41;;;;;;;2.78;2.25;;;4.30;76.60;;;4.23;65.46;100726.53;4993418;28;20203;-70
2022/02/25 02:43:12;;;;;;;5.82;2.33;;;4.20;77.60;;;4.16;65.65;100736.22;4993745;28;20182;-70
2022/02/25 02:45:41;;;;;;;6.43;2.53;;;4.20;80.60;;;4.08;66.30;100738.88;4993618;28;20183;-70
2022/02/25 02:48:10;;;;;;;4.32;2.45;;;4.10;84.70;;;4.00;66.29;100731.69;4994262;28;20214;-69
2022/02/25 02:50:46;;;;;;;5.75;2.10;;;4.00;87.40;;;3.96;66.57;100734.84;5018708;23;20218;31
2022/02/25 02:53:18;;;;;;;8.50;2.65;;;3.90;91.00;;;3.84;66.62;100734.28;4995195;28;20242;-69
2022/02/25 02:55:48;;;;;;;10.77;2.58;;;3.90;91.40;;;3.81;66.92;100756.03;4997701;28;20187;-68
2022/02/25 02:58:17;;;;;;;4.78;2.40;;;3.80;92.80;;;3.75;67.01;100744.16;4997738;28;20218;-68
2022/02/25 03:00:49;;;;;;;3.30;1.90;;;3.70;93.40;;;3.77;66.98;100750.19;5000532;28;20186;-67
2022/02/25 03:03:18;;;;;;;4.72;2.25;;;3.70;99.90;;;3.74;67.26;100758.53;5017085;28;20198;-68
2022/02/25 03:05:48;;;;;;;8.43;2.03;;;3.70;99.90;;;3.76;67.43;100755.69;5017067;28;20194;-67
2022/02/25 03:08:18;;;;;;;4.50;2.72;;;3.70;92.20;;;3.73;67.40;100762.19;5017116;28;20614;-69
2022/02/25 03:10:47;;;;;;;10.38;2.20;;;3.70;92.70;;;3.76;67.30;100761.88;5017118;28;20178;-67
2022/02/25 03:13:16;;;;;;;4.88;2.00;;;3.70;92.60;;;3.86;67.27;100767.09;5016965;28;20545;-69
2022/02/25 03:15:46;;;;;;;12.30;3.10;;;3.80;93.60;;;3.89;66.85;100759.59;5016633;28;20240;-68
2022/02/25 03:18:16;;;;;;;7.13;2.17;;;3.80;92.60;;;3.95;66.66;100771.47;5016772;28;20285;-68
2022/02/25 03:20:44;;;;;;;5.30;2.35;;;3.80;92.30;;;3.92;67.18;100764.59;5016905;28;20738;-68
2022/02/25 03:23:13;;;;;;;6.15;2.25;;;3.80;92.70;;;3.91;67.01;100779.00;5016869;28;20182;-68
2022/02/25 03:25:43;;;;;;;12.65;4.03;;;3.80;92.70;;;3.91;67.19;100780.84;5016874;28;20204;-68
2022/02/25 03:28:11;;;;;;;7.38;3.65;;;3.80;92.80;;;3.87;67.35;100782.19;5016924;28;20213;-67
2022/02/25 03:30:40;;;;;;;4.97;1.90;;;3.80;92.50;;;3.83;67.43;100784.31;5016677;28;20186;-68
2022/02/25 03:33:08;;;;;;;5.80;2.45;;;3.80;93.70;;;3.74;67.83;100787.97;5016843;28;20183;-67
2022/02/25 03:35:38;;;;;;;4.75;2.50;;;3.70;95.30;;;3.67;68.01;100794.13;5017379;28;20591;-67
2022/02/25 03:38:06;;;;;;;7.53;3.65;;;3.60;95.80;;;3.61;68.32;100802.78;5017097;28;20582;-67
2022/02/25 03:40:35;;;;;;;7.93;3.03;;;3.60;97.20;;;3.48;68.64;100798.72;5018042;28;20186;-67
2022/02/25 03:43:05;;;;;;;6.50;2.70;;;3.50;97.60;;;3.47;68.47;100793.53;5022347;28;20178;-67
2022/02/25 03:45:33;;;;;;;7.80;2.85;;;3.50;98.20;;;3.42;68.96;100806.53;5026399;28;20225;-69
2022/02/25 03:48:01;;;;;;;5.63;3.22;;;3.40;99.40;;;3.40;68.76;100809.34;5026075;28;20202;-68
2022/02/25 03:50:30;;;;;;;8.27;2.40;;;3.40;99.90;;;3.33;69.13;100808.31;5021454;28;20198;-68
2022/02/25 03:52:58;;;;;;;4.18;2.92;;;3.30;99.90;;;3.36;69.21;100821.38;5017376;28;20202;-68
2022/02/25 03:55:27;;;;;;;10.05;4.00;;;3.30;99.90;;;3.28;69.56;100815.97;5016809;28;20685;-69
2022/02/25 03:57:56;;;;;;;7.18;3.08;;;3.30;99.90;;;3.27;69.48;100818.78;5016222;28;20698;-69
2022/02/25 04:00:26;;;;;;;9.55;3.28;;;3.20;99.90;;;3.27;69.36;100821.47;5015527;28;20186;-69
2022/02/25 04:02:57;;;;;;;6.85;3.15;;;3.20;99.90;;;3.24;69.62;100824.47;4998452;28;20221;-68
2022/02/25 04:05:28;;;;;;;7.10;2.53;;;3.20;99.90;;;3.22;69.71;100831.81;4998202;28;20201;-69
2022/02/25 04:07:57;;;;;;;7.18;2.70;;;3.20;99.90;;;3.22;69.82;100832.66;5015252;28;20201;-69
2022/02/25 04:10:28;;;;;;;8.18;3.90;;;3.20;99.90;;;3.17;70.03;100839.44;5016276;28;20186;-68
2022/02/25 04:12:58;;;;;;;4.65;3.30;;;3.10;99.90;;;3.06;70.34;100844.03;5015580;28;20581;-68
2022/02/25 04:15:30;;;;;;;5.95;3.50;;;3.00;99.90;;;3.03;70.40;100839.03;5014206;28;20197;-67
2022/02/25 04:18:04;;;;;;;7.45;3.78;;;3.00;99.90;;;2.98;70.71;100852.00;5015421;28;20591;-67
2022/02/25 04:20:34;;;;;;;4.53;2.70;;;3.00;99.90;;;2.97;70.54;100849.47;4998068;28;20182;-68
2022/02/25 04:23:03;;;;;;;8.02;3.92;;;2.90;99.90;;;2.95;70.82;100868.34;5015798;28;20189;-68
2022/02/25 04:25:33;;;;;;;7.95;3.22;;;2.90;99.90;;;2.92;70.74;100859.78;4997730;28;20194;-69
2022/02/25 04:28:02;;;;;;;6.82;3.15;;;2.90;99.90;;;2.87;71.00;100862.94;4997767;28;20205;-68
2022/02/25 04:30:35;;;;;;;5.22;3.72;;;2.90;99.90;;;2.84;71.09;100873.09;5015373;28;20181;-68
2022/02/25 04:33:05;;;;;;;3.78;2.90;;;2.80;99.90;;;2.89;70.92;100874.31;5013780;28;20269;-68
2022/02/25 04:35:35;;;;;;;5.22;2.83;;;2.80;99.90;;;2.91;70.75;100879.50;5014990;28;20602;-68
2022/02/25 04:38:06;;;;;;;4.03;3.25;;;2.80;99.90;;;2.90;70.80;100870.66;5013631;28;20198;-69
2022/02/25 04:40:38;;;;;;;5.65;2.75;;;2.80;99.90;;;2.97;70.78;100882.41;4997795;28;20198;-67
2022/02/25 04:43:09;;;;;;;5.28;2.33;;;2.90;99.90;;;3.02;70.59;100888.13;4998419;28;20702;-68
2022/02/25 04:45:40;;;;;;;7.05;3.20;;;3.00;99.90;;;3.02;70.67;100889.97;5014109;28;20216;-68
2022/02/25 04:48:11;;;;;;;6.15;3.00;;;2.90;99.90;;;2.97;70.91;100890.44;5015301;28;20182;-68
2022/02/25 04:50:40;;;;;;;7.78;3.33;;;2.90;99.90;;;3.00;70.41;100889.28;5015249;28;20182;-67
2022/02/25 04:53:10;;;;;;;6.72;3.63;;;2.90;99.90;;;3.01;70.56;100893.63;5018546;28;20604;-67
2022/02/25 04:55:43;;;;;;;6.13;3.00;;;2.90;99.90;;;2.96;70.87;100888.72;5000447;28;20595;-67
2022/02/25 04:58:12;;;;;;;5.68;2.90;;;2.90;99.90;;;2.92;70.69;100900.72;5015366;28;20565;-68
2022/02/25 05:00:43;;;;;;;13.82;3.60;;;2.90;99.90;;;2.93;70.50;100904.25;5015692;28;20569;-66
2022/02/25 05:03:13;;;;;;;8.15;3.90;;;2.90;99.90;;;2.90;70.66;100900.06;4997597;28;20265;-69
2022/02/25 05:05:43;;;;;;;7.07;2.90;;;2.90;99.90;;;2.87;70.88;100899.50;5013219;28;20198;-67
2022/02/25 05:08:14;;;;;;;3.70;2.60;;;2.80;99.90;;;2.86;70.59;100896.00;4997916;28;20189;-68
2022/02/25 05:10:44;;;;;;;10.10;4.55;;;2.80;99.90;;;2.83;71.03;100901.66;5012873;28;20201;-67
2022/02/25 05:13:14;;;;;;;5.25;2.72;;;2.80;99.90;;;2.86;70.80;100896.00;5015892;28;20214;-67
2022/02/25 05:21:24;;;;;;;7.60;3.90;;;2.80;99.90;;;2.90;70.22;100902.75;4999516;28;20214;-69
2022/02/25 05:23:53;;;;;;;9.00;3.15;;;2.80;99.90;;;2.89;70.32;100911.75;5018305;28;20573;-68
2022/02/25 05:26:23;;;;;;;10.68;3.92;;;2.80;99.90;;;2.91;70.30;100909.75;4997617;28;20225;-68
2022/02/25 05:28:54;;;;;;;5.57;3.10;;;2.80;99.90;;;2.84;70.74;100908.69;5014355;28;20229;-68
2022/02/25 05:31:27;;;;;;;4.30;4.00;;;2.80;99.90;;;2.88;70.64;100914.56;4996697;28;20285;-68
2022/02/25 05:33:59;;;;;;;8.60;3.78;;;2.80;99.90;;;2.87;70.63;100913.72;4996644;28;20194;-68
2022/02/25 05:36:30;;;;;;;7.90;3.42;;;2.80;99.90;;;2.85;70.68;100923.72;5013545;28;20213;-69
2022/02/25 05:38:59;;;;;;;19.02;4.30;;;2.80;99.90;;;2.90;70.43;100923.28;5014425;28;20174;-68
2022/02/25 05:41:29;;;;;;;5.72;3.65;;;2.80;99.90;;;2.84;70.70;100924.72;5014669;28;20285;-69
2022/02/25 05:44:01;;;;;;;10.43;3.20;;;2.80;99.90;;;2.81;70.92;100929.53;4997286;28;20201;-67
2022/02/25 05:46:34;;;;;;;9.45;4.22;;;2.80;99.90;;;2.83;70.56;100928.38;5014905;28;20210;-67
2022/02/25 05:49:04;;;;;;;7.53;3.70;;;2.80;99.90;;;2.88;70.78;100931.44;4996153;28;20637;-66
2022/02/25 05:51:34;;;;;;;11.05;3.67;;;2.80;99.90;;;2.82;70.96;100937.38;5012755;28;20217;-68
2022/02/25 05:54:04;;;;;;;13.48;4.13;;;2.80;99.90;;;2.78;70.90;100938.69;4996476;28;20182;-68
2022/02/25 05:56:33;;;;;;;5.80;3.92;;;2.80;99.90;;;2.82;71.02;100947.22;4996067;28;20194;-69
2022/02/25 05:59:03;;;;;;;9.57;3.97;;;2.80;99.90;;;2.77;70.69;100950.34;4996114;28;20197;-68
2022/02/25 06:01:34;;;;;;;7.47;3.15;;;2.70;99.90;;;2.82;70.61;100947.22;4996207;28;20221;-68
2022/02/25 06:04:05;;;;;;;9.70;3.63;;;2.70;99.90;;;2.82;70.77;100956.09;5014079;28;20489;-68
2022/02/25 06:06:35;;;;;;;7.40;3.22;;;2.70;99.90;;;2.81;70.67;100956.25;5014616;28;20202;-67
2022/02/25 06:09:04;;;;;;;8.20;3.83;;;2.80;99.90;;;2.74;70.44;100950.66;5012606;28;20213;-67
2022/02/25 06:11:34;;;;;;;14.10;4.47;;;2.70;99.90;;;2.76;70.63;100954.00;5012460;28;20213;-68
2022/02/25 06:14:04;;;;;;;8.70;4.93;;;2.70;99.90;;;2.79;70.61;100958.22;4996594;28;20574;-68
2022/02/25 06:16:38;;;;;;;5.88;3.50;;;2.70;99.90;;;2.83;70.45;100960.44;5012339;28;20674;-68
2022/02/25 06:19:08;;;;;;;11.50;3.83;;;2.70;99.90;;;2.82;70.46;100964.09;4996270;28;20285;-67
2022/02/25 06:21:39;;;;;;;8.93;4.75;;;2.80;99.90;;;2.87;70.04;100956.47;5012964;28;20206;-68
2022/02/25 06:24:08;;;;;;;7.20;3.85;;;2.80;99.90;;;2.96;69.81;100968.94;5013447;28;20183;-68
2022/02/25 06:26:37;;;;;;;12.68;3.78;;;2.90;99.90;;;2.94;69.44;100962.91;5011969;28;20197;-69
2022/02/25 06:29:08;;;;;;;12.75;4.07;;;2.90;99.90;;;3.02;69.24;100973.69;5012149;28;20232;-70
2022/02/25 06:31:39;;;;;;;9.95;4.32;;;2.90;99.90;;;3.17;69.30;100975.81;5013338;28;20272;-68
2022/02/25 06:34:09;;;;;;;6.00;4.15;;;3.10;99.90;;;3.27;68.86;100968.56;5013153;28;20198;-67
2022/02/25 06:36:40;;;;;;;6.45;3.20;;;3.20;99.90;;;3.36;67.93;100978.34;5012975;28;20194;-67
2022/02/25 06:39:11;;;;;;;7.38;3.42;;;3.30;99.10;;;3.48;67.89;100979.81;5012551;28;20189;-68
2022/02/25 06:41:41;;;;;;;6.72;3.40;;;3.40;99.90;;;3.55;67.28;100972.81;5013177;28;20242;-69
2022/02/25 06:44:11;;;;;;;3.50;3.05;;;3.40;99.90;;;3.60;67.22;100981.22;5011998;28;20198;-69
2022/02/25 06:46:42;;;;;;;8.60;3.58;;;3.50;99.90;;;3.62;66.73;100973.06;5011890;28;20183;-67
2022/02/25 06:49:12;;;;;;;7.25;2.95;;;3.50;99.90;;;3.61;66.66;100982.91;5011364;28;20198;-68
2022/02/25 06:51:42;;;;;;;8.35;3.38;;;3.60;99.90;;;3.61;66.37;100979.41;5012117;28;20226;-68
2022/02/25 06:54:11;;;;;;;7.80;3.45;;;3.50;99.90;;;3.73;66.35;100995.03;5013673;28;20216;-69
2022/02/25 06:56:39;;;;;;;6.13;3.45;;;3.60;99.90;;;3.64;66.51;100995.97;5012121;28;20202;-68
2022/02/25 06:59:09;;;;;;;7.80;3.03;;;3.60;99.90;;;3.70;66.23;100990.00;5013265;28;20196;-69
2022/02/25 07:01:43;;;;;;;6.55;4.80;;;3.60;99.90;;;3.73;65.96;101002.22;4995489;28;20611;-69
2022/02/25 07:04:15;;;;;;;4.47;4.05;;;3.60;99.90;;;3.78;66.19;101005.28;5013150;28;20209;-68
2022/02/25 07:06:48;;;;;;;7.32;4.22;;;3.70;99.90;;;3.88;66.18;101006.88;5012761;28;20175;-68
2022/02/25 07:09:17;;;;;;;5.25;2.40;;;3.80;99.90;;;3.94;65.59;101011.59;4995459;28;20655;-70
2022/02/25 07:11:46;;;;;;;5.25;3.17;;;3.80;99.90;;;3.85;65.30;101012.53;4996180;28;20273;-71
2022/02/25 07:14:16;;;;;;;5.90;3.08;;;3.80;97.30;;;3.78;64.96;101011.47;4981705;28;20190;-68
2022/02/25 07:16:48;;;;;;;9.00;4.25;;;3.80;96.20;;;3.87;64.92;101018.56;4980533;28;20195;-70
2022/02/25 07:19:18;;;;;;;6.85;3.85;;;3.80;96.00;;;3.92;64.91;101016.25;4977565;28;20199;-69
2022/02/25 07:21:49;;;;;;;12.55;5.55;;;3.80;95.70;;;4.06;64.53;101019.41;4993289;28;20294;-69
2022/02/25 07:24:20;;;;;;;5.57;4.63;;;3.90;95.70;;;4.16;64.03;101020.13;4993609;28;20183;-69
2022/02/25 07:26:49;;;;;;;7.45;3.13;;;4.00;94.80;;;4.20;63.47;101021.50;4976016;28;20659;-68
2022/02/25 07:29:23;;;;;;;8.00;4.38;;;4.10;93.10;;;4.19;63.65;101017.13;4993454;28;20298;-69
2022/02/25 07:31:54;;;;;;;4.55;3.30;;;4.10;92.40;;;4.18;63.65;101028.84;4992673;28;20222;-69
2022/02/25 07:34:24;;;;;;;13.23;4.15;;;4.10;91.80;;;4.39;63.46;101034.66;4976724;28;20199;-69
2022/02/25 07:36:55;;;;;;;8.85;4.13;;;4.20;91.70;;;4.38;63.21;101032.97;4979083;28;20194;-69
2022/02/25 07:39:26;;;;;;;5.78;3.70;;;4.20;91.10;;;4.42;62.80;101025.47;4996843;28;20178;-69
2022/02/25 07:42:01;;;;;;;7.85;5.15;;;4.30;89.40;;;4.37;62.72;101024.09;4996390;28;20714;-68
2022/02/25 07:44:30;;;;;;;4.05;2.95;;;4.30;87.10;;;4.21;62.97;101028.53;4978900;28;20190;-68
2022/02/25 07:47:02;;;;;;;10.18;3.92;;;4.20;86.30;;;4.19;63.11;101026.00;4995118;28;20179;-68
2022/02/25 07:49:32;;;;;;;3.67;3.38;;;4.10;84.50;;;4.22;62.71;101035.56;4978851;28;20284;-68
2022/02/25 07:52:01;;;;;;;10.80;5.15;;;4.10;84.20;;;4.25;63.16;101032.56;4978546;28;20246;-68
2022/02/25 07:54:33;;;;;;;6.68;4.75;;;4.10;84.50;;;4.38;63.01;101030.31;4978691;28;20202;-69
2022/02/25 07:57:02;;;;;;;6.90;3.80;;;4.20;85.60;;;4.29;62.20;101039.28;4978904;28;20214;-68
2022/02/25 07:59:32;;;;;;;8.75;3.13;;;4.20;92.80;;;4.31;62.54;101046.16;4978463;28;20719;-68
2022/02/25 08:02:05;;;;;;;4.50;2.60;;;4.20;80.80;;;4.51;61.90;101057.50;4996020;28;20203;-69
2022/02/25 08:04:36;;;;;;;8.10;3.42;;;4.30;80.00;;;4.65;61.26;101056.06;4962946;28;20242;-70
2022/02/25 08:07:25;;;;;;;6.90;3.22;;;4.50;78.00;;;4.77;60.73;101057.47;4978320;28;20677;-70
2022/02/25 08:09:55;;;;;;;9.57;3.63;;;4.60;75.40;;;4.99;60.50;101064.94;4995660;28;20237;-69
2022/02/25 08:12:25;;;;;;;4.45;3.72;;;4.80;75.00;;;4.93;60.30;101062.06;4996081;28;20203;-68
2022/02/25 08:14:54;;;;;;;6.25;3.83;;;4.80;71.60;;;5.06;60.04;101065.13;4978332;28;20667;-70
2022/02/25 08:17:27;;;;;;;10.68;3.60;;;4.90;71.10;;;4.93;59.87;101086.22;4995989;28;20179;-67
2022/02/25 08:19:56;;;;;;;8.77;2.55;;;4.90;67.60;;;4.87;60.03;101079.66;4978464;28;20199;-69
2022/02/25 08:22:27;;;;;;;4.95;3.05;;;4.80;66.20;;;5.13;59.35;101074.22;4996116;28;20230;-68
2022/02/25 08:24:58;;;;;;;11.70;2.90;;;5.00;65.50;;;5.26;59.45;101069.22;4994527;28;20582;-67
2022/02/25 08:27:27;;;;;;;8.27;3.85;;;5.10;64.90;;;5.18;58.88;101088.00;4978142;28;20195;-68
2022/02/25 08:29:57;;;;;;;7.28;3.33;;;5.10;62.10;;;5.28;58.72;101080.63;4977911;28;20203;-69
2022/02/25 08:32:30;;;;;;;8.60;4.22;;;5.20;61.20;;;5.40;58.63;101087.38;4978338;28;20269;-68
2022/02/25 08:34:59;;;;;;;4.38;2.78;;;5.30;61.00;;;5.59;58.43;101080.88;4978611;28;20198;-69
2022/02/25 08:37:29;;;;;;;6.47;2.65;;;5.40;60.20;;;5.61;57.50;101086.94;4978135;28;20205;-68
2022/02/25 08:40:01;;;;;;;5.43;2.70;;;5.50;58.80;;;5.43;58.28;101087.03;4978361;28;20664;-68
2022/02/25 08:42:31;;;;;;;4.85;1.80;;;5.40;57.50;;;5.38;58.04;101070.59;4977930;28;20215;-68
2022/02/25 08:45:00;;;;;;;7.93;3.38;;;5.40;56.00;;;5.58;57.99;101084.56;4978189;28;20245;-71
2022/02/25 08:47:31;;;;;;;4.35;2.70;;;5.50;56.20;;;5.82;57.57;101081.06;4995438;28;20626;-70
2022/02/25 08:50:00;;;;;;;9.20;2.95;;;5.60;55.50;;;5.84;57.10;101074.53;4977825;28;20277;-68
2022/02/25 08:52:29;;;;;;;4.40;2.60;;;5.70;55.40;;;5.90;57.39;101086.47;5052076;23;20772;-70
2022/02/25 08:54:59;;;;;;;3.67;2.85;;;5.80;53.40;;;6.07;56.33;101082.78;5015069;28;20197;-71
2022/02/25 08:57:28;;;;;;;5.68;2.20;;;5.90;52.60;;;6.10;56.40;101087.81;5015003;28;20198;-71
2022/02/25 08:59:56;;;;;;;6.60;3.20;;;6.00;51.70;;;6.19;55.79;101092.19;5014837;28;20182;-70
2022/02/25 09:02:25;;;;;;;4.82;2.40;;;6.00;50.00;;;6.29;55.98;101084.81;5015356;28;20214;-71
2022/02/25 09:04:55;;;;;;;8.55;2.85;;;6.20;49.60;;;6.36;55.82;101093.84;5014366;28;20182;-70
2022/02/25 09:07:24;;;;;;;7.82;2.58;;;6.30;48.50;;;6.36;55.50;101096.53;5014733;28;20174;-70
2022/02/25 09:09:53;;;;;;;5.93;2.95;;;6.30;47.00;;;6.47;55.11;101093.50;5014722;28;20606;-71
2022/02/25 09:16:53;;;;;;;11.35;3.10;;;6.30;45.10;;;6.46;55.31;101083.75;5015240;28;20662;-70
2022/02/25 09:19:22;;;;;;;6.75;1.88;;;6.40;43.10;;;6.27;55.14;101119.06;5015837;28;20250;-70
2022/02/25 09:21:52;;;;;;;9.20;2.60;;;6.30;41.70;;;6.20;55.46;101095.69;5014435;28;20209;-71
2022/02/25 09:24:21;;;;;;;5.75;2.35;;;6.20;40.30;;;6.58;55.07;101088.78;5014497;28;20307;-71
2022/02/25 09:26:50;;;;;;;6.75;3.20;;;6.40;40.70;;;6.81;54.35;101089.72;5014847;28;20221;-71
2022/02/25 09:29:19;;;;;;;6.45;2.78;;;6.60;39.90;;;7.02;53.95;101100.72;5014396;28;20197;-70
2022/02/25 09:31:49;;;;;;;8.68;2.50;;;6.80;40.20;;;7.05;53.53;101104.94;4996680;28;20321;-71
2022/02/25 09:34:19;;;;;;;5.60;3.75;;;6.90;38.70;;;6.92;53.69;101103.63;5014707;28;20772;-69
2022/02/25 09:36:52;;;;;;;8.73;2.72;;;6.90;37.50;;;6.98;53.72;101099.41;5014404;28;20217;-70
2022/02/25 09:39:21;;;;;;;10.50;2.75;;;6.80;36.30;;;7.04;53.49;101103.25;4997166;28;20671;-70
2022/02/25 09:41:56;;;;;;;8.75;2.83;;;6.90;35.70;;;7.33;53.17;101100.75;5014351;28;20206;-69
2022/02/25 09:44:27;;;;;;;4.95;2.63;;;7.20;35.50;;;7.36;52.85;101109.31;4996230;28;20191;-71
2022/02/25 09:46:56;;;;;;;8.05;2.90;;;7.30;34.40;;;6.98;53.05;101102.09;5013840;28;20293;-70
2022/02/25 09:49:26;;;;;;;4.35;2.45;;;7.00;31.80;;;6.93;52.89;101093.69;5014274;28;20273;-69
2022/02/25 09:51:57;;;;;;;5.07;2.65;;;7.00;31.50;;;6.79;53.84;101115.94;5013808;28;20248;-69
2022/02/25 09:54:25;;;;;;;6.65;3.03;;;6.80;30.20;;;6.92;53.65;101109.00;5014658;28;20213;-70
2022/02/25 09:56:56;;;;;;;12.35;3.35;;;6.80;30.20;;;7.22;53.54;101104.69;5014829;28;20197;-70
2022/02/25 09:59:25;;;;;;;12.70;3.80;;;7.00;30.80;;;7.37;52.41;101116.38;5014930;28;20659;-70
2022/02/25 10:02:03;;;;;;;12.73;4.25;;;7.20;30.00;;;7.38;52.64;101120.75;5013798;28;20237;-69
2022/02/25 10:04:34;;;;;;;8.20;2.90;;;7.30;29.40;;;7.56;52.12;101122.34;5014631;28;20253;-69
2022/02/25 10:07:25;;;;;;;5.75;2.63;;;7.40;29.60;;;7.60;52.44;101134.47;5013626;28;20177;-70
2022/02/25 10:09:54;;;;;;;8.70;3.17;;;7.40;28.50;;;7.57;52.40;101134.78;5013909;28;20698;-70
2022/02/25 10:12:24;;;;;;;5.03;2.88;;;7.40;27.80;;;7.47;52.12;101136.88;5014926;28;20220;-70
2022/02/25 10:14:53;;;;;;;6.53;2.80;;;7.40;26.80;;;7.21;52.46;101151.44;4996146;28;20234;-69
2022/02/25 10:17:25;;;;;;;10.18;2.40;;;7.20;25.30;;;7.11;52.20;101147.31;5014053;28;20561;-70
2022/02/25 10:20:00;;;;;;;12.30;2.88;;;7.10;24.90;;;7.35;52.23;101141.81;5014424;28;20182;-70
2022/02/25 10:22:36;;;;;;;13.52;3.67;;;7.10;24.50;;;7.30;52.30;101145.03;5013789;28;20574;-69
2022/02/25 10:25:08;;;;;;;9.15;2.40;;;7.20;24.10;;;7.32;52.07;101148.38;4996107;28;20268;-69
2022/02/25 10:27:40;;;;;;;12.68;2.95;;;7.20;23.70;;;7.11;52.14;101140.06;5013434;28;20281;-70
2022/02/25 10:30:13;;;;;;;8.73;3.33;;;7.10;23.00;;;7.25;52.34;101152.81;5013687;28;20805;-70
2022/02/25 10:32:44;;;;;;;10.23;3.58;;;7.10;23.00;;;7.07;52.76;101154.88;5013142;28;20210;-70
2022/02/25 10:35:27;;;;;;;7.80;2.70;;;7.00;22.00;;;6.90;52.54;101148.72;5013622;28;20318;-70
2022/02/25 10:38:06;;;;;;;6.10;2.55;;;6.90;21.30;;;6.93;52.79;101148.34;5013854;28;20190;-70
2022/02/25 10:40:38;;;;;;;10.98;3.15;;;6.80;21.10;;;7.09;53.23;101152.84;5013644;28;20184;-70
2022/02/25 10:43:12;;;;;;;11.32;4.47;;;6.90;21.50;;;7.39;52.64;101157.44;5013399;28;20602;-70
2022/02/25 10:45:43;;;;;;;7.70;3.38;;;7.10;21.80;;;7.30;52.41;101163.88;4995797;28;20202;-70
2022/02/25 10:48:15;;;;;;;9.75;3.65;;;7.10;21.20;;;7.12;52.83;101157.88;5013448;28;20599;-70
2022/02/25 10:50:48;;;;;;;9.10;3.30;;;7.10;20.90;;;6.96;52.64;101160.63;5013451;28;20178;-70